createdAt,value
2018-05-07T00:00:41.287Z,20.07
2018-05-07T00:01:44.588Z,20.05
2018-05-07T00:02:47.902Z,20.02
2018-05-07T00:03:51.218Z,20.00
2018-05-07T00:04:54.542Z,19.98
2018-05-07T00:05:57.954Z,19.96
2018-05-07T00:07:01.181Z,19.94
2018-05-07T00:08:04.464Z,19.93
2018-05-07T00:09:07.779Z,19.92
2018-05-07T00:10:11.135Z,19.90
2018-05-07T00:11:14.447Z,19.88
2018-05-07T00:12:17.758Z,19.86
2018-05-07T00:13:21.120Z,19.83
2018-05-07T00:14:24.435Z,19.82
2018-05-07T00:15:27.758Z,19.80
2018-05-07T00:16:31.070Z,19.78
2018-05-07T00:17:34.382Z,19.76
2018-05-07T00:18:37.701Z,19.74
2018-05-07T00:19:40.994Z,19.73
2018-05-07T00:20:44.420Z,19.71
2018-05-07T00:21:47.644Z,19.70
2018-05-07T00:22:50.979Z,19.68
2018-05-07T00:23:54.289Z,19.67
2018-05-07T00:24:57.581Z,19.65
2018-05-07T00:26:00.932Z,19.64
2018-05-07T00:27:04.247Z,19.63
2018-05-07T00:28:07.589Z,19.61
2018-05-07T00:29:10.957Z,19.59
2018-05-07T00:30:14.266Z,19.58
2018-05-07T00:31:17.585Z,19.57
2018-05-07T00:32:20.909Z,19.55
2018-05-07T00:33:24.290Z,19.55
2018-05-07T00:34:27.607Z,19.54
2018-05-07T00:35:30.971Z,19.53
2018-05-07T00:36:34.283Z,19.53
2018-05-07T00:37:37.599Z,19.53
2018-05-07T00:38:40.918Z,19.53
2018-05-07T00:39:44.232Z,19.53
2018-05-07T00:40:47.537Z,19.53
2018-05-07T00:41:50.872Z,19.53
2018-05-07T00:42:54.195Z,19.53
2018-05-07T00:43:57.510Z,19.52
2018-05-07T00:45:00.823Z,19.50
2018-05-07T00:46:04.152Z,19.49
2018-05-07T00:47:07.467Z,19.49
2018-05-07T00:48:12.488Z,19.46
2018-05-07T00:49:15.794Z,19.44
2018-05-07T00:50:19.103Z,19.42
2018-05-07T00:51:22.430Z,19.41
2018-05-07T00:52:25.764Z,19.39
2018-05-07T00:53:29.071Z,19.37
2018-05-07T00:54:32.375Z,19.36
2018-05-07T00:55:35.681Z,19.34
2018-05-07T00:56:39.010Z,19.33
2018-05-07T00:57:42.339Z,19.31
2018-05-07T00:58:45.664Z,19.30
2018-05-07T00:59:48.965Z,19.29
2018-05-07T01:00:52.278Z,19.27
2018-05-07T01:01:55.605Z,19.25
2018-05-07T01:02:58.935Z,19.24
2018-05-07T01:04:02.241Z,19.23
2018-05-07T01:05:05.560Z,19.22
2018-05-07T01:06:08.854Z,19.20
2018-05-07T01:07:12.177Z,19.19
2018-05-07T01:08:15.493Z,19.18
2018-05-07T01:09:18.801Z,19.16
2018-05-07T01:10:22.101Z,19.15
2018-05-07T01:11:25.410Z,19.14
2018-05-07T01:12:28.719Z,19.12
2018-05-07T01:13:32.078Z,19.11
2018-05-07T01:14:35.377Z,19.10
2018-05-07T01:15:38.982Z,19.08
2018-05-07T01:16:42.290Z,19.07
2018-05-07T01:17:45.597Z,19.06
2018-05-07T01:18:48.922Z,19.05
2018-05-07T01:19:52.243Z,19.04
2018-05-07T01:20:55.549Z,19.02
2018-05-07T01:21:58.858Z,19.01
2018-05-07T01:23:02.175Z,19.01
2018-05-07T01:24:05.494Z,18.99
2018-05-07T01:25:08.819Z,18.99
2018-05-07T01:26:12.133Z,18.98
2018-05-07T01:27:15.448Z,18.97
2018-05-07T01:28:18.788Z,18.96
2018-05-07T01:29:22.113Z,18.95
2018-05-07T01:30:25.412Z,18.93
2018-05-07T01:31:28.755Z,18.91
2018-05-07T01:32:32.055Z,18.90
2018-05-07T01:33:35.365Z,18.88
2018-05-07T01:34:38.690Z,18.86
2018-05-07T01:35:41.987Z,18.84
2018-05-07T01:36:45.291Z,18.82
2018-05-07T01:37:48.613Z,18.81
2018-05-07T01:38:51.915Z,18.79
2018-05-07T01:39:55.240Z,18.78
2018-05-07T01:40:58.549Z,18.77
2018-05-07T01:42:01.850Z,18.75
2018-05-07T01:43:05.158Z,18.73
2018-05-07T01:44:08.470Z,18.72
2018-05-07T01:45:11.797Z,18.71
2018-05-07T01:46:15.116Z,18.69
2018-05-07T01:47:18.424Z,18.68
2018-05-07T01:48:23.284Z,18.66
2018-05-07T01:49:26.605Z,18.64
2018-05-07T01:50:29.933Z,18.62
2018-05-07T01:51:33.245Z,18.61
2018-05-07T01:52:36.594Z,18.60
2018-05-07T01:53:39.933Z,18.58
2018-05-07T01:54:43.223Z,18.57
2018-05-07T01:55:46.548Z,18.55
2018-05-07T01:56:49.860Z,18.53
2018-05-07T01:57:53.171Z,18.52
2018-05-07T01:58:56.478Z,18.50
2018-05-07T01:59:59.784Z,18.48
2018-05-07T02:01:03.134Z,18.47
2018-05-07T02:02:06.435Z,18.46
2018-05-07T02:03:09.743Z,18.45
2018-05-07T02:04:13.038Z,18.43
2018-05-07T02:05:16.366Z,18.42
2018-05-07T02:06:19.692Z,18.41
2018-05-07T02:07:22.995Z,18.40
2018-05-07T02:08:26.315Z,18.38
2018-05-07T02:09:29.628Z,18.37
2018-05-07T02:10:32.940Z,18.36
2018-05-07T02:11:36.272Z,18.34
2018-05-07T02:12:39.602Z,18.34
2018-05-07T02:13:42.912Z,18.33
2018-05-07T02:14:46.224Z,18.31
2018-05-07T02:15:49.548Z,18.30
2018-05-07T02:16:52.897Z,18.29
2018-05-07T02:17:56.194Z,18.28
2018-05-07T02:18:59.515Z,18.27
2018-05-07T02:20:02.843Z,18.26
2018-05-07T02:21:06.146Z,18.25
2018-05-07T02:22:09.477Z,18.24
2018-05-07T02:23:12.799Z,18.22
2018-05-07T02:24:16.111Z,18.21
2018-05-07T02:25:19.427Z,18.20
2018-05-07T02:26:22.727Z,18.19
2018-05-07T02:27:26.063Z,18.18
2018-05-07T02:28:29.378Z,18.17
2018-05-07T02:29:32.706Z,18.16
2018-05-07T02:30:36.008Z,18.15
2018-05-07T02:31:39.353Z,18.14
2018-05-07T02:32:42.692Z,18.13
2018-05-07T02:33:46.010Z,18.12
2018-05-07T02:34:49.309Z,18.10
2018-05-07T02:35:52.667Z,18.09
2018-05-07T02:36:55.992Z,18.07
2018-05-07T02:37:59.355Z,18.07
2018-05-07T02:39:02.803Z,18.05
2018-05-07T02:40:06.094Z,18.03
2018-05-07T02:41:09.402Z,18.02
2018-05-07T02:42:12.732Z,18.00
2018-05-07T02:43:16.050Z,17.98
2018-05-07T02:44:19.461Z,17.97
2018-05-07T02:45:22.752Z,17.96
2018-05-07T02:46:26.079Z,17.94
2018-05-07T02:47:29.391Z,17.93
2018-05-07T02:48:32.891Z,17.90
2018-05-07T02:49:36.240Z,17.90
2018-05-07T02:50:39.584Z,17.88
2018-05-07T02:51:42.905Z,17.87
2018-05-07T02:52:46.222Z,17.85
2018-05-07T02:53:49.575Z,17.84
2018-05-07T02:54:52.883Z,17.82
2018-05-07T02:55:56.201Z,17.81
2018-05-07T02:56:59.514Z,17.80
2018-05-07T02:58:02.838Z,17.78
2018-05-07T02:59:06.171Z,17.77
2018-05-07T03:00:09.480Z,17.76
2018-05-07T03:01:12.780Z,17.74
2018-05-07T03:02:16.077Z,17.73
2018-05-07T03:03:19.380Z,17.71
2018-05-07T03:04:22.719Z,17.70
2018-05-07T03:05:26.014Z,17.68
2018-05-07T03:06:29.325Z,17.67
2018-05-07T03:07:32.878Z,17.65
2018-05-07T03:08:36.207Z,17.64
2018-05-07T03:09:39.539Z,17.63
2018-05-07T03:10:42.842Z,17.62
2018-05-07T03:11:46.163Z,17.60
2018-05-07T03:12:49.484Z,17.59
2018-05-07T03:13:52.784Z,17.57
2018-05-07T03:14:56.125Z,17.55
2018-05-07T03:15:59.422Z,17.55
2018-05-07T03:17:02.728Z,17.53
2018-05-07T03:18:06.030Z,17.53
2018-05-07T03:19:09.338Z,17.51
2018-05-07T03:20:12.651Z,17.48
2018-05-07T03:21:15.958Z,17.47
2018-05-07T03:22:19.271Z,17.45
2018-05-07T03:23:22.593Z,17.43
2018-05-07T03:24:25.901Z,17.42
2018-05-07T03:25:29.228Z,17.41
2018-05-07T03:26:32.527Z,17.40
2018-05-07T03:27:35.824Z,17.39
2018-05-07T03:28:39.145Z,17.38
2018-05-07T03:29:42.445Z,17.37
2018-05-07T03:30:45.779Z,17.36
2018-05-07T03:31:49.101Z,17.35
2018-05-07T03:32:52.416Z,17.33
2018-05-07T03:33:55.732Z,17.32
2018-05-07T03:34:59.054Z,17.30
2018-05-07T03:36:02.388Z,17.29
2018-05-07T03:37:05.685Z,17.27
2018-05-07T03:38:09.010Z,17.27
2018-05-07T03:39:12.322Z,17.25
2018-05-07T03:40:15.631Z,17.24
2018-05-07T03:41:18.960Z,17.23
2018-05-07T03:42:22.268Z,17.21
2018-05-07T03:43:25.580Z,17.20
2018-05-07T03:44:28.954Z,17.19
2018-05-07T03:45:32.253Z,17.18
2018-05-07T03:46:35.579Z,17.18
2018-05-07T03:47:38.886Z,17.17
2018-05-07T03:48:42.491Z,17.16
2018-05-07T03:49:45.771Z,17.15
2018-05-07T03:50:49.065Z,17.14
2018-05-07T03:51:52.409Z,17.13
2018-05-07T03:52:55.723Z,17.12
2018-05-07T03:53:59.022Z,17.11
2018-05-07T03:55:02.332Z,17.10
2018-05-07T03:56:05.635Z,17.09
2018-05-07T03:57:09.034Z,17.09
2018-05-07T03:58:12.372Z,17.08
2018-05-07T03:59:15.675Z,17.08
2018-05-07T04:00:19.064Z,17.07
2018-05-07T04:01:22.385Z,17.07
2018-05-07T04:02:25.719Z,17.05
2018-05-07T04:03:29.043Z,17.05
2018-05-07T04:04:32.353Z,17.04
2018-05-07T04:05:35.708Z,17.04
2018-05-07T04:06:39.027Z,17.03
2018-05-07T04:07:42.363Z,17.02
2018-05-07T04:08:45.672Z,17.02
2018-05-07T04:09:48.981Z,17.01
2018-05-07T04:10:52.279Z,17.00
2018-05-07T04:11:55.582Z,17.00
2018-05-07T04:12:58.904Z,16.99
2018-05-07T04:14:02.234Z,16.98
2018-05-07T04:15:05.539Z,16.97
2018-05-07T04:16:08.824Z,16.97
2018-05-07T04:17:23.856Z,16.96
2018-05-07T04:18:39.042Z,16.93
2018-05-07T04:19:54.147Z,16.91
2018-05-07T04:21:09.251Z,16.89
2018-05-07T04:22:24.439Z,16.87
2018-05-07T04:23:39.385Z,16.85
2018-05-07T04:24:42.732Z,16.84
2018-05-07T04:25:46.051Z,16.85
2018-05-07T04:26:49.380Z,16.87
2018-05-07T04:27:52.726Z,16.87
2018-05-07T04:28:56.083Z,16.87
2018-05-07T04:29:59.391Z,16.87
2018-05-07T04:31:02.709Z,16.88
2018-05-07T04:32:06.035Z,16.88
2018-05-07T04:33:09.334Z,16.89
2018-05-07T04:34:12.871Z,16.88
2018-05-07T04:35:16.232Z,16.89
2018-05-07T04:36:19.524Z,16.89
2018-05-07T04:37:22.827Z,16.89
2018-05-07T04:38:26.271Z,16.90
2018-05-07T04:39:29.601Z,16.89
2018-05-07T04:40:32.916Z,16.90
2018-05-07T04:41:36.219Z,16.89
2018-05-07T04:42:39.518Z,16.91
2018-05-07T04:43:42.815Z,16.90
2018-05-07T04:44:46.155Z,16.91
2018-05-07T04:45:49.456Z,16.91
2018-05-07T04:46:52.783Z,16.91
2018-05-07T04:47:56.119Z,16.91
2018-05-07T04:48:59.667Z,16.91
2018-05-07T04:50:03.154Z,16.92
2018-05-07T04:51:06.462Z,16.93
2018-05-07T04:52:09.851Z,16.94
2018-05-07T04:53:13.172Z,16.94
2018-05-07T04:54:16.496Z,16.94
2018-05-07T04:55:20.073Z,16.95
2018-05-07T04:56:23.391Z,16.95
2018-05-07T04:57:26.695Z,16.96
2018-05-07T04:58:30.073Z,16.97
2018-05-07T04:59:33.392Z,16.98
2018-05-07T05:00:36.784Z,16.98
2018-05-07T05:01:40.103Z,16.99
2018-05-07T05:02:43.418Z,17.00
2018-05-07T05:03:46.724Z,17.00
2018-05-07T05:04:50.027Z,17.01
2018-05-07T05:05:53.366Z,17.02
2018-05-07T05:06:56.724Z,17.03
2018-05-07T05:08:00.076Z,17.04
2018-05-07T05:09:03.553Z,17.05
2018-05-07T05:10:06.853Z,17.06
2018-05-07T05:11:10.185Z,17.07
2018-05-07T05:12:13.524Z,17.09
2018-05-07T05:13:16.842Z,17.10
2018-05-07T05:14:20.223Z,17.12
2018-05-07T05:15:24.282Z,17.12
2018-05-07T05:16:27.610Z,17.14
2018-05-07T05:17:30.939Z,17.16
2018-05-07T05:18:34.257Z,17.17
2018-05-07T05:19:37.631Z,17.18
2018-05-07T05:20:40.940Z,17.19
2018-05-07T05:21:44.268Z,17.21
2018-05-07T05:22:47.576Z,17.24
2018-05-07T05:23:50.883Z,17.27
2018-05-07T05:24:54.232Z,17.29
2018-05-07T05:25:57.537Z,17.37
2018-05-07T05:27:00.863Z,17.51
2018-05-07T05:28:04.163Z,17.76
2018-05-07T05:29:07.566Z,18.07
2018-05-07T05:30:10.830Z,18.42
2018-05-07T05:31:14.131Z,18.79
2018-05-07T05:32:17.512Z,19.16
2018-05-07T05:33:20.819Z,19.51
2018-05-07T05:34:24.144Z,19.86
2018-05-07T05:35:27.471Z,20.19
2018-05-07T05:36:30.788Z,20.51
2018-05-07T05:37:34.243Z,20.82
2018-05-07T05:38:37.531Z,21.12
2018-05-07T05:39:41.295Z,21.39
2018-05-07T05:40:44.595Z,21.67
2018-05-07T05:41:47.921Z,21.94
2018-05-07T05:42:51.340Z,22.20
2018-05-07T05:43:54.657Z,22.44
2018-05-07T05:44:57.983Z,22.70
2018-05-07T05:46:01.304Z,22.92
2018-05-07T05:47:04.629Z,23.16
2018-05-07T05:48:07.946Z,23.37
2018-05-07T05:49:12.228Z,23.58
2018-05-07T05:50:15.602Z,23.81
2018-05-07T05:51:18.876Z,24.02
2018-05-07T05:52:22.182Z,24.22
2018-05-07T05:53:25.558Z,24.43
2018-05-07T05:54:28.877Z,24.61
2018-05-07T05:55:32.385Z,24.77
2018-05-07T05:56:35.740Z,24.93
2018-05-07T05:57:39.069Z,25.09
2018-05-07T05:58:42.447Z,25.22
2018-05-07T05:59:45.767Z,25.37
2018-05-07T06:00:49.150Z,25.53
2018-05-07T06:01:52.477Z,25.67
2018-05-07T06:02:55.776Z,25.80
2018-05-07T06:03:59.215Z,25.95
2018-05-07T06:05:02.448Z,26.10
2018-05-07T06:06:05.783Z,26.25
2018-05-07T06:07:09.128Z,26.39
2018-05-07T06:08:12.420Z,26.52
2018-05-07T06:09:15.754Z,26.66
2018-05-07T06:10:19.413Z,26.81
2018-05-07T06:11:22.776Z,26.93
2018-05-07T06:12:26.103Z,27.06
2018-05-07T06:13:29.410Z,27.18
2018-05-07T06:14:32.919Z,27.31
2018-05-07T06:15:36.425Z,27.45
2018-05-07T06:16:39.747Z,27.57
2018-05-07T06:17:43.422Z,27.72
2018-05-07T06:18:46.745Z,27.86
2018-05-07T06:19:50.081Z,28.01
2018-05-07T06:20:53.406Z,28.13
2018-05-07T06:21:56.700Z,28.24
2018-05-07T06:23:00.065Z,28.35
2018-05-07T06:24:03.371Z,28.45
2018-05-07T06:25:06.708Z,28.54
2018-05-07T06:26:10.127Z,28.59
2018-05-07T06:27:13.435Z,28.66
2018-05-07T06:28:16.762Z,28.75
2018-05-07T06:29:20.078Z,28.84
2018-05-07T06:30:23.431Z,28.94
2018-05-07T06:31:26.866Z,29.04
2018-05-07T06:32:30.236Z,29.14
2018-05-07T06:33:33.608Z,29.25
2018-05-07T06:34:36.946Z,29.37
2018-05-07T06:35:40.298Z,29.46
2018-05-07T06:37:53.440Z,29.60
2018-05-07T06:38:56.750Z,29.71
2018-05-07T06:40:00.072Z,29.79
2018-05-07T06:41:03.398Z,29.89
2018-05-07T06:42:06.710Z,29.98
2018-05-07T06:43:10.040Z,30.07
2018-05-07T06:44:13.347Z,30.16
2018-05-07T06:45:16.658Z,30.28
2018-05-07T06:46:20.171Z,30.37
2018-05-07T06:47:23.568Z,30.48
2018-05-07T06:48:26.872Z,30.57
2018-05-07T06:49:30.461Z,30.69
2018-05-07T06:50:33.780Z,30.79
2018-05-07T06:51:37.128Z,30.90
2018-05-07T06:52:40.449Z,30.96
2018-05-07T06:53:43.823Z,31.03
2018-05-07T06:54:47.179Z,31.10
2018-05-07T06:55:50.491Z,31.13
2018-05-07T06:56:53.843Z,31.15
2018-05-07T06:57:57.139Z,31.16
2018-05-07T06:59:00.448Z,31.16
2018-05-07T07:00:03.762Z,31.15
2018-05-07T07:01:07.121Z,31.07
2018-05-07T07:02:10.580Z,30.90
2018-05-07T07:03:13.806Z,30.63
2018-05-07T07:04:17.116Z,30.31
2018-05-07T07:05:20.423Z,29.94
2018-05-07T07:06:23.744Z,29.59
2018-05-07T07:07:27.188Z,29.23
2018-05-07T07:08:30.640Z,28.90
2018-05-07T07:09:33.781Z,28.57
2018-05-07T07:10:37.084Z,28.26
2018-05-07T07:11:40.414Z,27.99
2018-05-07T07:12:43.717Z,27.73
2018-05-07T07:13:47.048Z,27.47
2018-05-07T07:14:50.342Z,27.23
2018-05-07T07:15:53.653Z,27.03
2018-05-07T07:16:57.007Z,26.84
2018-05-07T07:18:00.325Z,26.66
2018-05-07T07:19:03.763Z,26.53
2018-05-07T07:20:07.059Z,26.40
2018-05-07T07:21:10.361Z,26.27
2018-05-07T07:22:13.683Z,26.15
2018-05-07T07:23:17.056Z,26.02
2018-05-07T07:24:20.362Z,25.89
2018-05-07T07:25:23.690Z,25.77
2018-05-07T07:26:27.004Z,25.65
2018-05-07T07:27:30.328Z,25.55
2018-05-07T07:28:33.670Z,25.45
2018-05-07T07:29:36.959Z,25.34
2018-05-07T07:30:40.260Z,25.25
2018-05-07T07:31:43.587Z,25.18
2018-05-07T07:32:46.899Z,25.09
2018-05-07T07:33:50.429Z,25.02
2018-05-07T07:34:53.603Z,24.95
2018-05-07T07:35:56.931Z,24.88
2018-05-07T07:37:00.240Z,24.82
2018-05-07T07:38:03.567Z,24.77
2018-05-07T07:39:06.956Z,24.73
2018-05-07T07:40:10.267Z,24.75
2018-05-07T07:41:13.688Z,24.85
2018-05-07T07:42:16.986Z,24.98
2018-05-07T07:43:20.346Z,25.05
2018-05-07T07:44:23.672Z,25.07
2018-05-07T07:45:26.979Z,25.04
2018-05-07T07:46:30.279Z,24.99
2018-05-07T07:47:33.608Z,24.95
2018-05-07T07:48:36.985Z,24.87
2018-05-07T07:49:40.498Z,24.79
2018-05-07T07:50:43.898Z,24.71
2018-05-07T07:51:47.263Z,24.63
2018-05-07T07:52:50.595Z,24.56
2018-05-07T07:53:53.948Z,24.49
2018-05-07T07:54:57.234Z,24.44
2018-05-07T07:56:00.627Z,24.40
2018-05-07T07:57:03.935Z,24.36
2018-05-07T07:58:07.272Z,24.33
2018-05-07T07:59:10.583Z,24.30
2018-05-07T08:00:13.932Z,24.27
2018-05-07T08:01:17.270Z,24.24
2018-05-07T08:02:20.671Z,24.21
2018-05-07T08:03:23.946Z,24.18
2018-05-07T08:04:27.250Z,24.15
2018-05-07T08:05:30.606Z,24.12
2018-05-07T08:06:33.924Z,24.09
2018-05-07T08:07:37.245Z,24.06
2018-05-07T08:08:40.559Z,24.03
2018-05-07T08:09:43.885Z,24.01
2018-05-07T08:10:47.221Z,24.00
2018-05-07T08:11:50.522Z,23.98
2018-05-07T08:12:53.910Z,23.97
2018-05-07T08:13:57.223Z,23.95
2018-05-07T08:15:00.531Z,23.94
2018-05-07T08:16:03.925Z,23.93
2018-05-07T08:17:07.248Z,23.92
2018-05-07T08:18:10.581Z,23.90
2018-05-07T08:19:13.877Z,23.88
2018-05-07T08:20:17.200Z,23.86
2018-05-07T08:21:20.577Z,23.84
2018-05-07T08:22:23.944Z,23.84
2018-05-07T08:23:27.259Z,23.84
2018-05-07T08:24:30.553Z,23.83
2018-05-07T08:25:33.850Z,23.83
2018-05-07T08:26:37.205Z,23.82
2018-05-07T08:27:40.548Z,23.82
2018-05-07T08:28:43.885Z,23.82
2018-05-07T08:29:47.460Z,23.82
2018-05-07T08:30:50.788Z,23.82
2018-05-07T08:31:54.219Z,23.82
2018-05-07T08:32:57.568Z,23.82
2018-05-07T08:34:00.991Z,23.81
2018-05-07T08:35:04.350Z,23.81
2018-05-07T08:36:07.739Z,23.81
2018-05-07T08:37:11.138Z,23.81
2018-05-07T08:38:14.468Z,23.80
2018-05-07T08:39:17.811Z,23.80
2018-05-07T08:40:21.223Z,23.80
2018-05-07T08:41:24.667Z,23.80
2018-05-07T08:42:28.063Z,23.80
2018-05-07T08:43:31.502Z,23.78
2018-05-07T08:44:34.858Z,23.77
2018-05-07T08:45:38.167Z,23.75
2018-05-07T08:46:41.512Z,23.74
2018-05-07T08:47:44.848Z,23.74
2018-05-07T08:48:48.186Z,23.74
2018-05-07T08:49:51.760Z,23.74
2018-05-07T08:50:55.099Z,23.75
2018-05-07T08:51:58.414Z,23.75
2018-05-07T08:53:01.990Z,23.76
2018-05-07T08:54:05.242Z,23.76
2018-05-07T08:55:08.573Z,23.78
2018-05-07T08:56:11.884Z,23.77
2018-05-07T08:57:15.223Z,23.76
2018-05-07T08:58:18.572Z,23.77
2018-05-07T08:59:21.911Z,23.77
2018-05-07T09:00:25.251Z,23.77
2018-05-07T09:01:28.566Z,23.77
2018-05-07T09:02:31.884Z,23.76
2018-05-07T09:03:35.224Z,23.77
2018-05-07T09:04:38.548Z,23.78
2018-05-07T09:05:41.916Z,23.79
2018-05-07T09:06:45.222Z,23.80
2018-05-07T09:07:48.567Z,23.80
2018-05-07T09:08:53.716Z,23.81
2018-05-07T09:09:57.054Z,23.80
2018-05-07T09:11:00.365Z,23.81
2018-05-07T09:12:03.704Z,23.82
2018-05-07T09:13:07.032Z,23.81
2018-05-07T09:14:10.483Z,23.81
2018-05-07T09:15:13.811Z,23.81
2018-05-07T09:16:17.140Z,23.80
2018-05-07T09:17:20.484Z,23.80
2018-05-07T09:18:23.811Z,23.80
2018-05-07T09:19:27.178Z,23.80
2018-05-07T09:20:30.484Z,23.81
2018-05-07T09:21:34.903Z,23.82
2018-05-07T09:22:38.245Z,23.81
2018-05-07T09:23:41.547Z,23.82
2018-05-07T09:24:44.870Z,23.84
2018-05-07T09:25:48.181Z,23.84
2018-05-07T09:26:51.496Z,23.85
2018-05-07T09:27:54.808Z,23.86
2018-05-07T09:28:58.137Z,23.87
2018-05-07T09:30:01.451Z,23.87
2018-05-07T09:31:04.760Z,23.88
2018-05-07T09:32:08.424Z,23.89
2018-05-07T09:33:11.881Z,23.89
2018-05-07T09:34:15.188Z,23.90
2018-05-07T09:35:18.530Z,23.91
2018-05-07T09:36:21.833Z,23.91
2018-05-07T09:37:26.737Z,23.91
2018-05-07T09:38:30.084Z,23.91
2018-05-07T09:39:33.374Z,23.92
2018-05-07T09:40:36.889Z,23.93
2018-05-07T09:41:40.207Z,23.94
2018-05-07T09:42:43.526Z,23.96
2018-05-07T09:43:46.887Z,23.98
2018-05-07T09:44:50.199Z,24.00
2018-05-07T09:45:53.588Z,24.01
2018-05-07T09:46:56.876Z,24.03
2018-05-07T09:48:00.247Z,24.05
2018-05-07T09:49:03.629Z,24.06
2018-05-07T09:50:07.097Z,24.07
2018-05-07T09:51:10.409Z,24.09
2018-05-07T09:52:13.749Z,24.10
2018-05-07T09:53:17.063Z,24.11
2018-05-07T09:54:20.589Z,24.11
2018-05-07T09:55:23.869Z,24.10
2018-05-07T09:56:27.303Z,24.11
2018-05-07T09:57:30.627Z,24.11
2018-05-07T09:58:33.965Z,24.10
2018-05-07T09:59:37.260Z,24.09
2018-05-07T10:00:40.550Z,24.07
2018-05-07T10:01:43.886Z,24.07
2018-05-07T10:02:47.198Z,24.05
2018-05-07T10:03:50.500Z,24.05
2018-05-07T10:04:53.836Z,24.06
2018-05-07T10:05:57.147Z,24.06
2018-05-07T10:07:00.490Z,24.08
2018-05-07T10:08:03.802Z,24.09
2018-05-07T10:09:07.131Z,24.11
2018-05-07T10:10:10.423Z,24.13
2018-05-07T10:11:13.739Z,24.14
2018-05-07T10:12:17.125Z,24.15
2018-05-07T10:13:20.439Z,24.16
2018-05-07T10:14:23.795Z,24.18
2018-05-07T10:15:27.092Z,24.19
2018-05-07T10:16:30.414Z,24.19
2018-05-07T10:17:33.742Z,24.18
2018-05-07T10:18:37.472Z,24.18
2018-05-07T10:19:40.795Z,24.18
2018-05-07T10:20:44.108Z,24.18
2018-05-07T10:21:47.430Z,24.19
2018-05-07T10:22:51.035Z,24.20
2018-05-07T10:23:54.338Z,24.22
2018-05-07T10:24:57.662Z,24.24
2018-05-07T10:26:00.995Z,24.26
2018-05-07T10:27:04.321Z,24.28
2018-05-07T10:28:07.658Z,24.29
2018-05-07T10:29:11.185Z,24.29
2018-05-07T10:30:14.488Z,24.30
2018-05-07T10:31:17.906Z,24.31
2018-05-07T10:32:21.251Z,24.31
2018-05-07T10:33:24.573Z,24.32
2018-05-07T10:34:27.903Z,24.32
2018-05-07T10:35:31.235Z,24.33
2018-05-07T10:36:34.551Z,24.34
2018-05-07T10:37:38.059Z,24.34
2018-05-07T10:38:41.404Z,24.34
2018-05-07T10:39:44.731Z,24.35
2018-05-07T10:40:48.043Z,24.36
2018-05-07T10:41:51.380Z,24.37
2018-05-07T10:42:54.683Z,24.37
2018-05-07T10:43:58.064Z,24.37
2018-05-07T10:45:01.400Z,24.38
2018-05-07T10:46:04.703Z,24.39
2018-05-07T10:47:08.045Z,24.39
2018-05-07T10:48:11.363Z,24.40
2018-05-07T10:49:14.907Z,24.40
2018-05-07T10:50:18.347Z,24.43
2018-05-07T10:51:21.733Z,24.44
2018-05-07T10:52:25.104Z,24.45
2018-05-07T10:53:28.408Z,24.46
2018-05-07T10:54:31.799Z,24.47
2018-05-07T10:55:35.171Z,24.49
2018-05-07T10:56:38.490Z,24.50
2018-05-07T10:57:41.815Z,24.52
2018-05-07T10:58:45.214Z,24.54
2018-05-07T10:59:48.549Z,24.55
2018-05-07T11:00:51.860Z,24.56
2018-05-07T11:01:55.188Z,24.58
2018-05-07T11:02:58.499Z,24.59
2018-05-07T11:04:01.808Z,24.60
2018-05-07T11:05:05.141Z,24.61
2018-05-07T11:06:08.448Z,24.63
2018-05-07T11:07:11.763Z,24.64
2018-05-07T11:08:15.085Z,24.64
2018-05-07T11:09:18.396Z,24.66
2018-05-07T11:10:21.846Z,24.67
2018-05-07T11:11:25.137Z,24.68
2018-05-07T11:12:28.511Z,24.69
2018-05-07T11:13:31.910Z,24.71
2018-05-07T11:14:35.228Z,24.72
2018-05-07T11:15:38.673Z,24.74
2018-05-07T11:16:41.998Z,24.77
2018-05-07T11:17:45.311Z,24.77
2018-05-07T11:18:48.656Z,24.78
2018-05-07T11:19:52.022Z,24.79
2018-05-07T11:20:55.312Z,24.79
2018-05-07T11:21:58.615Z,24.81
2018-05-07T11:23:01.927Z,24.81
2018-05-07T11:24:05.237Z,24.83
2018-05-07T11:25:08.535Z,24.83
2018-05-07T11:26:11.862Z,24.83
2018-05-07T11:27:15.176Z,24.83
2018-05-07T11:28:18.491Z,24.84
2018-05-07T11:29:21.793Z,24.85
2018-05-07T11:30:25.106Z,24.85
2018-05-07T11:31:28.459Z,24.86
2018-05-07T11:32:31.779Z,24.86
2018-05-07T11:33:35.119Z,24.87
2018-05-07T11:34:38.670Z,24.89
2018-05-07T11:35:42.121Z,24.89
2018-05-07T11:36:45.484Z,24.89
2018-05-07T11:37:48.776Z,24.89
2018-05-07T11:38:52.141Z,24.91
2018-05-07T11:39:55.431Z,24.92
2018-05-07T11:40:58.738Z,24.92
2018-05-07T11:42:02.075Z,24.93
2018-05-07T11:43:05.435Z,24.94
2018-05-07T11:44:08.732Z,24.95
2018-05-07T11:45:12.061Z,24.95
2018-05-07T11:46:15.371Z,24.96
2018-05-07T11:47:18.798Z,24.97
2018-05-07T11:48:22.035Z,24.97
2018-05-07T11:49:25.334Z,24.99
2018-05-07T11:50:29.611Z,25.01
2018-05-07T11:51:32.986Z,25.03
2018-05-07T11:52:36.324Z,25.06
2018-05-07T11:53:39.643Z,25.08
2018-05-07T11:54:42.965Z,25.10
2018-05-07T11:55:46.296Z,25.11
2018-05-07T11:56:49.610Z,25.12
2018-05-07T11:57:52.937Z,25.14
2018-05-07T11:58:56.256Z,25.15
2018-05-07T11:59:59.575Z,25.17
2018-05-07T12:01:02.891Z,25.18
2018-05-07T12:02:06.178Z,25.20
2018-05-07T12:03:09.522Z,25.22
2018-05-07T12:04:12.883Z,25.24
2018-05-07T12:05:16.187Z,25.26
2018-05-07T12:06:19.507Z,25.28
2018-05-07T12:07:22.859Z,25.30
2018-05-07T12:08:27.104Z,25.31
2018-05-07T12:09:30.452Z,25.31
2018-05-07T12:10:33.806Z,25.32
2018-05-07T12:11:37.139Z,25.32
2018-05-07T12:12:40.476Z,25.33
2018-05-07T12:13:43.827Z,25.33
2018-05-07T12:14:47.152Z,25.34
2018-05-07T12:15:50.511Z,25.35
2018-05-07T12:16:53.779Z,25.35
2018-05-07T12:17:57.083Z,25.36
2018-05-07T12:19:00.427Z,25.38
2018-05-07T12:20:03.737Z,25.40
2018-05-07T12:21:07.072Z,25.40
2018-05-07T12:22:10.380Z,25.41
2018-05-07T12:23:13.812Z,25.42
2018-05-07T12:24:17.243Z,25.43
2018-05-07T12:25:20.845Z,25.44
2018-05-07T12:26:24.173Z,25.45
2018-05-07T12:27:27.493Z,25.46
2018-05-07T12:28:30.801Z,25.45
2018-05-07T12:29:34.208Z,25.46
2018-05-07T12:30:37.511Z,25.47
2018-05-07T12:31:40.877Z,25.48
2018-05-07T12:32:44.236Z,25.49
2018-05-07T12:33:47.570Z,25.50
2018-05-07T12:34:51.063Z,25.50
2018-05-07T12:35:54.397Z,25.50
2018-05-07T12:36:57.756Z,25.50
2018-05-07T12:38:01.111Z,25.50
2018-05-07T12:39:04.460Z,25.51
2018-05-07T12:40:07.959Z,25.52
2018-05-07T12:41:11.307Z,25.53
2018-05-07T12:42:14.684Z,25.54
2018-05-07T12:43:17.971Z,25.55
2018-05-07T12:44:21.294Z,25.57
2018-05-07T12:45:24.660Z,25.59
2018-05-07T12:46:28.059Z,25.61
2018-05-07T12:47:31.381Z,25.63
2018-05-07T12:48:34.710Z,25.64
2018-05-07T12:49:38.062Z,25.65
2018-05-07T12:50:42.375Z,25.66
2018-05-07T12:51:45.693Z,25.66
2018-05-07T12:52:48.990Z,25.68
2018-05-07T12:53:52.296Z,25.68
2018-05-07T12:54:55.602Z,25.69
2018-05-07T12:55:58.956Z,25.68
2018-05-07T12:57:02.249Z,25.68
2018-05-07T12:58:05.562Z,25.68
2018-05-07T12:59:08.891Z,25.69
2018-05-07T13:00:12.205Z,25.70
2018-05-07T13:01:15.555Z,25.72
2018-05-07T13:02:18.865Z,25.73
2018-05-07T13:03:22.180Z,25.74
2018-05-07T13:04:25.479Z,25.75
2018-05-07T13:05:28.817Z,25.76
2018-05-07T13:06:32.204Z,25.76
2018-05-07T13:07:35.524Z,25.76
2018-05-07T13:08:38.861Z,25.76
2018-05-07T13:10:51.817Z,25.78
2018-05-07T13:11:55.147Z,25.81
2018-05-07T13:12:58.471Z,25.82
2018-05-07T13:14:01.883Z,25.83
2018-05-07T13:15:05.258Z,25.83
2018-05-07T13:16:08.662Z,25.84
2018-05-07T13:17:12.100Z,25.85
2018-05-07T13:18:15.372Z,25.86
2018-05-07T13:19:18.730Z,25.87
2018-05-07T13:20:22.104Z,25.88
2018-05-07T13:21:28.838Z,25.89
2018-05-07T13:22:34.139Z,25.89
2018-05-07T13:23:41.363Z,25.91
2018-05-07T13:24:47.070Z,25.92
2018-05-07T13:25:53.955Z,25.94
2018-05-07T13:26:57.280Z,25.96
2018-05-07T13:28:00.637Z,25.98
2018-05-07T13:29:03.964Z,25.98
2018-05-07T13:30:07.299Z,25.99
2018-05-07T13:31:10.604Z,26.00
2018-05-07T13:32:13.923Z,26.00
2018-05-07T13:33:17.311Z,26.02
2018-05-07T13:34:20.762Z,26.02
2018-05-07T13:35:24.239Z,26.03
2018-05-07T13:36:27.690Z,26.04
2018-05-07T13:37:31.023Z,26.05
2018-05-07T13:38:39.187Z,26.05
2018-05-07T13:39:46.045Z,26.05